Time;durP1;ratioP1;P1;durP2;ratioP2;P2;SDS_P1;SDS_P2;PMS_P1;PMS_P2;Temp;Humidity;BMP_temperature;BMP_pressure;BME280_temperature;BME280_humidity;BME280_pressure;Samples;Min_cycle;Max_cycle;Signal;HPM_P1;HPM_P2
2023/08/28 00:00:28;;;;;;;11.00;6.72;;;22.50;99.90;;;;;;4114211;28;20019;-66
2023/08/28 00:02:29;;;;;;;9.32;6.13;;;22.40;99.90;;;;;;4114997;28;20030;-65
2023/08/28 00:04:30;;;;;;;12.68;6.57;;;22.40;99.90;;;;;;4114034;28;20431;-66
2023/08/28 00:06:31;;;;;;;12.02;7.20;;;22.30;99.90;;;;;;4114844;28;20047;-62
2023/08/28 00:08:32;;;;;;;9.43;6.65;;;22.30;99.90;;;;;;4114321;28;20514;-61
2023/08/28 00:10:33;;;;;;;9.88;6.32;;;22.20;99.90;;;;;;4115168;28;20480;-66
2023/08/28 00:12:40;;;;;;;10.18;6.18;;;22.20;99.90;;;;;;4114432;28;20023;-66
2023/08/28 00:14:41;;;;;;;7.85;5.65;;;22.30;99.90;;;;;;4114242;28;20059;-66
2023/08/28 00:16:42;;;;;;;11.55;6.25;;;22.40;99.90;;;;;;4114669;28;20077;-66
2023/08/28 00:18:44;;;;;;;8.85;6.78;;;22.30;99.90;;;;;;4113664;28;20098;-66
2023/08/28 00:20:45;;;;;;;10.18;5.45;;;22.30;99.90;;;;;;4114506;28;20127;-64
2023/08/28 00:22:46;;;;;;;11.02;5.65;;;22.30;99.90;;;;;;4114398;28;20039;-66
2023/08/28 00:24:47;;;;;;;11.50;5.55;;;22.30;99.90;;;;;;4114772;28;20098;-65
2023/08/28 00:26:49;;;;;;;6.68;5.30;;;22.30;99.90;;;;;;4111895;28;20035;-65
2023/08/28 00:28:50;;;;;;;7.85;6.15;;;22.30;99.90;;;;;;4114778;28;20491;-63
2023/08/28 00:30:51;;;;;;;9.15;6.28;;;22.30;99.90;;;;;;4113293;28;20113;-67
2023/08/28 00:32:52;;;;;;;11.98;6.80;;;22.30;99.90;;;;;;4113039;28;20073;-65
2023/08/28 00:34:54;;;;;;;9.38;6.03;;;22.40;99.90;;;;;;4113441;28;20089;-67
2023/08/28 00:36:55;;;;;;;8.50;5.63;;;22.30;99.90;;;;;;4114174;28;20097;-66
2023/08/28 00:38:56;;;;;;;6.03;5.15;;;22.40;99.90;;;;;;4113631;28;20038;-65
2023/08/28 00:40:58;;;;;;;9.23;6.57;;;22.40;99.90;;;;;;4114102;28;20038;-67
2023/08/28 00:42:59;;;;;;;9.05;5.93;;;22.40;99.90;;;;;;4113696;28;20027;-67
2023/08/28 00:45:00;;;;;;;9.35;6.15;;;22.40;99.90;;;;;;4113718;28;20443;-64
2023/08/28 00:47:02;;;;;;;10.30;6.03;;;22.40;99.90;;;;;;4113403;28;20035;-66
2023/08/28 00:49:04;;;;;;;8.13;6.13;;;22.40;99.90;;;;;;4114185;28;20074;-67
2023/08/28 00:51:05;;;;;;;9.55;6.13;;;22.30;99.90;;;;;;4114536;28;20035;-66
2023/08/28 00:53:06;;;;;;;8.70;5.68;;;22.20;99.90;;;;;;4114112;28;20097;-65
2023/08/28 00:55:09;;;;;;;10.63;6.20;;;22.10;99.90;;;;;;4114563;28;20117;-67
2023/08/28 00:57:12;;;;;;;12.90;6.20;;;22.00;99.90;;;;;;4113436;28;20039;-67
2023/08/28 00:59:15;;;;;;;14.25;6.97;;;22.00;99.90;;;;;;4113540;28;20091;-67
2023/08/28 01:01:16;;;;;;;9.73;6.63;;;21.90;99.90;;;;;;4113442;28;20030;-65
2023/08/28 01:03:17;;;;;;;9.18;6.35;;;21.80;99.90;;;;;;4114393;28;20039;-63
2023/08/28 01:05:19;;;;;;;10.82;7.00;;;21.60;99.90;;;;;;4113523;28;20035;-64
2023/08/28 01:07:30;;;;;;;10.85;7.68;;;21.50;99.90;;;;;;4112185;28;20455;-65
2023/08/28 01:09:59;;;;;;;9.88;6.40;;;21.30;99.90;;;;;;4113190;28;20105;-64
2023/08/28 01:12:00;;;;;;;12.45;6.43;;;21.20;99.90;;;;;;4113938;28;20042;-63
2023/08/28 01:14:17;;;;;;;10.38;5.82;;;21.10;99.90;;;;;;4112608;28;20504;-63
2023/08/28 01:16:21;;;;;;;7.18;6.00;;;21.20;99.90;;;;;;4114551;28;20133;-65
2023/08/28 01:18:23;;;;;;;10.43;6.47;;;21.20;99.90;;;;;;4113036;28;20047;-61
2023/08/28 01:20:27;;;;;;;8.35;5.80;;;21.20;99.90;;;;;;4114315;28;20073;-64
2023/08/28 01:22:57;;;;;;;13.40;7.20;;;21.10;99.90;;;;;;4112631;28;20093;-64
2023/08/28 01:25:17;;;;;;;12.88;7.07;;;21.10;99.90;;;;;;4112494;28;20046;-66
2023/08/28 01:27:21;;;;;;;15.38;7.60;;;21.10;99.90;;;;;;4112984;28;20034;-65
2023/08/28 01:29:22;;;;;;;13.23;6.50;;;21.00;99.90;;;;;;4113596;28;20440;-63
2023/08/28 01:31:25;;;;;;;11.25;7.20;;;21.00;99.90;;;;;;4112390;28;20523;-63
2023/08/28 01:33:26;;;;;;;11.55;7.18;;;21.10;99.90;;;;;;4114016;28;20042;-66
2023/08/28 01:35:31;;;;;;;10.85;8.18;;;21.00;99.90;;;;;;4110853;28;20118;-62
2023/08/28 01:37:42;;;;;;;9.32;6.70;;;21.00;99.90;;;;;;4114105;28;20093;-62
2023/08/28 01:39:46;;;;;;;13.20;6.97;;;20.90;99.90;;;;;;4112126;28;20093;-65
2023/08/28 01:41:49;;;;;;;10.57;7.10;;;20.90;99.90;;;;;;4112912;28;20046;-65
2023/08/28 01:43:54;;;;;;;9.70;6.65;;;20.90;99.90;;;;;;4112609;28;20023;-67
2023/08/28 01:45:56;;;;;;;11.43;6.82;;;20.90;99.90;;;;;;4113806;28;20062;-65
2023/08/28 01:47:57;;;;;;;11.32;7.22;;;20.90;99.90;;;;;;4112088;28;20494;-63
2023/08/28 01:49:58;;;;;;;11.55;6.97;;;20.90;99.90;;;;;;4112991;28;20110;-62
2023/08/28 01:52:00;;;;;;;12.40;7.50;;;20.90;99.90;;;;;;4112242;28;20035;-60
2023/08/28 01:54:01;;;;;;;9.57;7.35;;;20.90;99.90;;;;;;4113097;28;20093;-66
2023/08/28 01:56:09;;;;;;;8.70;7.22;;;20.80;99.90;;;;;;4112194;28;20113;-64
2023/08/28 01:58:14;;;;;;;9.20;7.05;;;20.80;99.90;;;;;;4112165;28;20073;-64
2023/08/28 02:00:15;;;;;;;11.70;8.05;;;20.70;99.90;;;;;;4113048;28;20027;-64
2023/08/28 02:02:16;;;;;;;12.07;7.28;;;20.60;99.90;;;;;;4112222;28;20039;-64
2023/08/28 02:04:17;;;;;;;10.68;6.50;;;20.50;99.90;;;;;;4112837;28;20043;-64
2023/08/28 02:06:19;;;;;;;10.48;6.68;;;20.50;99.90;;;;;;4111893;28;20039;-64
2023/08/28 02:08:20;;;;;;;14.95;8.35;;;20.40;99.90;;;;;;4112522;28;20439;-68
2023/08/28 02:10:21;;;;;;;11.45;8.05;;;20.30;99.90;;;;;;4111374;28;20095;-65
2023/08/28 02:12:22;;;;;;;17.65;8.88;;;20.30;99.90;;;;;;4113268;28;20027;-66
2023/08/28 02:14:23;;;;;;;11.40;7.13;;;20.20;99.90;;;;;;4111992;28;20451;-66
2023/08/28 02:16:25;;;;;;;9.98;7.45;;;20.10;99.90;;;;;;4113182;28;20770;-63
2023/08/28 02:18:27;;;;;;;12.13;7.28;;;20.00;99.90;;;;;;4111462;28;20137;-61
2023/08/28 02:20:29;;;;;;;10.73;7.15;;;20.00;99.90;;;;;;4112462;28;20043;-66
2023/08/28 02:22:30;;;;;;;11.48;7.28;;;19.90;99.90;;;;;;4111747;28;20035;-65
2023/08/28 02:24:31;;;;;;;14.57;7.38;;;19.90;99.90;;;;;;4112248;28;20464;-61
2023/08/28 02:26:33;;;;;;;11.10;7.32;;;19.90;99.90;;;;;;4112376;28;20079;-66
2023/08/28 02:28:34;;;;;;;9.73;7.38;;;19.90;99.90;;;;;;4111275;28;20373;-65
2023/08/28 02:30:35;;;;;;;10.32;7.43;;;19.80;99.90;;;;;;4110990;28;20035;-67
2023/08/28 02:32:36;;;;;;;12.10;7.32;;;19.80;99.90;;;;;;4111204;28;20026;-66
2023/08/28 02:34:37;;;;;;;11.32;7.07;;;19.70;99.90;;;;;;4112415;28;20081;-66
2023/08/28 02:36:38;;;;;;;10.48;8.00;;;19.70;99.90;;;;;;4111537;28;20550;-64
2023/08/28 02:38:39;;;;;;;10.40;7.53;;;19.70;99.90;;;;;;4112648;28;20491;-65
2023/08/28 02:40:41;;;;;;;10.77;7.32;;;19.70;99.90;;;;;;4111332;28;20086;-67
2023/08/28 02:42:42;;;;;;;11.10;7.82;;;19.70;99.90;;;;;;4112738;28;20086;-66
2023/08/28 02:44:43;;;;;;;18.17;9.70;;;19.70;99.90;;;;;;4111470;28;20054;-67
2023/08/28 02:46:44;;;;;;;12.52;8.27;;;19.70;99.90;;;;;;4112584;28;20050;-67
2023/08/28 02:48:45;;;;;;;17.83;9.02;;;19.80;99.90;;;;;;4110727;28;20042;-63
2023/08/28 02:50:49;;;;;;;8.60;7.65;;;19.70;99.90;;;;;;4112023;28;20479;-68
2023/08/28 02:52:50;;;;;;;12.95;7.70;;;19.70;99.90;;;;;;4111862;28;20344;-67
2023/08/28 02:54:51;;;;;;;14.20;9.85;;;19.60;99.90;;;;;;4112341;28;20046;-69
2023/08/28 02:56:52;;;;;;;16.55;12.07;;;19.60;99.90;;;;;;4111366;28;20039;-64
2023/08/28 02:58:54;;;;;;;12.85;9.77;;;19.60;99.90;;;;;;4111722;28;20519;-67
2023/08/28 03:00:55;;;;;;;15.98;9.90;;;19.50;99.90;;;;;;4112580;28;20047;-67
2023/08/28 03:02:56;;;;;;;22.52;9.07;;;19.50;99.90;;;;;;4111759;28;20090;-69
2023/08/28 03:04:57;;;;;;;14.73;8.45;;;19.40;99.90;;;;;;4112640;28;20018;-64
2023/08/28 03:06:58;;;;;;;9.43;8.25;;;19.40;99.90;;;;;;4110879;28;20499;-66
2023/08/28 03:08:59;;;;;;;14.40;8.52;;;19.50;99.90;;;;;;4112839;28;20364;-64
2023/08/28 03:11:01;;;;;;;12.93;8.77;;;19.40;99.90;;;;;;4111219;28;20042;-67
2023/08/28 03:13:02;;;;;;;13.65;8.30;;;19.40;99.90;;;;;;4112420;28;20381;-67
2023/08/28 03:15:04;;;;;;;13.73;8.98;;;19.40;99.90;;;;;;4111422;28;20184;-67
2023/08/28 03:17:05;;;;;;;13.43;8.27;;;19.40;99.90;;;;;;4112533;28;20483;-63
2023/08/28 03:19:06;;;;;;;12.75;8.00;;;19.40;99.90;;;;;;4111505;28;20086;-64
2023/08/28 03:21:07;;;;;;;18.52;9.63;;;19.40;99.90;;;;;;4112610;28;20088;-67
2023/08/28 03:23:09;;;;;;;14.88;9.05;;;19.40;99.90;;;;;;4111654;28;20463;-66
2023/08/28 03:25:10;;;;;;;12.02;9.15;;;19.40;99.90;;;;;;4111956;28;20381;-63
2023/08/28 03:27:11;;;;;;;12.65;8.60;;;19.50;99.90;;;;;;4111767;28;20060;-64
2023/08/28 03:29:13;;;;;;;9.05;7.70;;;19.60;99.90;;;;;;4111646;28;20050;-66
2023/08/28 03:31:14;;;;;;;16.63;8.90;;;19.60;99.90;;;;;;4111402;28;20122;-68
2023/08/28 03:33:15;;;;;;;16.88;9.40;;;19.70;99.90;;;;;;4111000;28;20471;-67
2023/08/28 03:35:16;;;;;;;14.73;7.88;;;19.80;99.90;;;;;;4112324;28;20122;-65
2023/08/28 03:37:17;;;;;;;15.07;8.60;;;19.80;99.90;;;;;;4109943;28;20027;-66
2023/08/28 03:39:19;;;;;;;13.35;8.13;;;19.90;99.90;;;;;;4112369;28;20090;-64
2023/08/28 03:41:20;;;;;;;12.48;8.82;;;19.90;99.90;;;;;;4111296;28;20365;-66
2023/08/28 03:43:21;;;;;;;11.18;8.73;;;20.00;99.90;;;;;;4111853;28;20480;-68
2023/08/28 03:45:22;;;;;;;12.60;8.32;;;20.00;99.90;;;;;;4111122;28;20093;-67
2023/08/28 03:47:23;;;;;;;17.67;8.50;;;20.00;99.90;;;;;;4112309;28;20538;-69
2023/08/28 03:49:26;;;;;;;17.27;9.95;;;20.10;99.90;;;;;;4110536;28;20126;-67
2023/08/28 03:51:27;;;;;;;10.73;7.80;;;20.10;99.90;;;;;;4112392;28;20139;-66
2023/08/28 03:53:28;;;;;;;10.65;8.38;;;20.10;99.90;;;;;;4110581;28;20484;-65
2023/08/28 03:55:30;;;;;;;13.95;8.35;;;20.10;99.90;;;;;;4111877;28;20046;-66
2023/08/28 03:57:34;;;;;;;12.35;7.28;;;20.10;99.90;;;;;;4111157;28;20022;-68
2023/08/28 03:59:36;;;;;;;14.07;8.45;;;20.20;99.90;;;;;;4111328;28;20078;-68
2023/08/28 04:01:37;;;;;;;18.05;8.00;;;20.30;99.90;;;;;;4111640;28;20082;-66
2023/08/28 04:03:38;;;;;;;11.95;8.43;;;20.40;99.90;;;;;;4109949;28;20450;-65
2023/08/28 04:05:39;;;;;;;15.93;8.48;;;20.50;99.90;;;;;;4111696;28;20491;-64
2023/08/28 04:07:40;;;;;;;9.68;7.18;;;20.70;99.90;;;;;;4111149;28;20034;-67
2023/08/28 04:09:41;;;;;;;13.50;7.53;;;20.80;99.90;;;;;;4111956;28;20504;-68
2023/08/28 04:11:43;;;;;;;11.85;7.90;;;21.10;99.90;;;;;;4110493;28;20039;-65
2023/08/28 04:13:44;;;;;;;11.57;7.30;;;21.40;99.90;;;;;;4111388;28;20443;-68
2023/08/28 04:15:45;;;;;;;14.25;7.82;;;21.60;99.90;;;;;;4110189;28;20451;-67
2023/08/28 04:17:46;;;;;;;11.30;6.75;;;22.00;99.90;;;;;;4111186;28;20043;-68
2023/08/28 04:19:51;;;;;;;15.70;7.82;;;22.20;99.90;;;;;;4112726;28;20178;-66
2023/08/28 04:21:52;;;;;;;12.48;7.13;;;22.30;99.90;;;;;;4114993;28;20077;-68
2023/08/28 04:23:53;;;;;;;13.02;6.72;;;22.70;99.90;;;;;;4113900;28;20082;-65
2023/08/28 04:25:54;;;;;;;12.57;7.10;;;23.00;99.90;;;;;;4114933;28;20099;-65
2023/08/28 04:27:55;;;;;;;27.45;8.20;;;23.40;99.90;;;;;;4113428;28;20101;-65
2023/08/28 04:29:56;;;;;;;14.10;7.45;;;23.80;99.90;;;;;;4114263;28;20468;-67
2023/08/28 04:31:58;;;;;;;12.50;7.10;;;24.00;99.90;;;;;;4113592;28;20026;-66
2023/08/28 04:33:59;;;;;;;11.52;6.55;;;24.10;99.90;;;;;;4113708;28;20113;-68
2023/08/28 04:36:00;;;;;;;9.38;6.45;;;24.30;99.90;;;;;;4113876;28;20134;-68
2023/08/28 04:38:01;;;;;;;12.65;5.95;;;24.50;99.90;;;;;;4113391;28;20436;-67
2023/08/28 04:40:03;;;;;;;9.85;6.15;;;24.80;99.90;;;;;;4114621;28;20459;-64
2023/08/28 04:42:05;;;;;;;11.60;6.47;;;25.10;99.90;;;;;;4113563;28;20042;-66
2023/08/28 04:44:06;;;;;;;11.45;6.22;;;25.30;99.90;;;;;;4113697;28;20058;-64
2023/08/28 04:46:07;;;;;;;11.95;6.20;;;25.60;99.90;;;;;;4113420;28;20026;-66
2023/08/28 04:48:08;;;;;;;10.68;5.88;;;25.80;99.90;;;;;;4114409;28;20598;-66
2023/08/28 04:50:09;;;;;;;13.82;6.78;;;26.00;99.90;;;;;;4113258;28;20043;-63
2023/08/28 04:52:11;;;;;;;11.15;6.50;;;26.20;99.90;;;;;;4114009;28;20459;-63
2023/08/28 04:54:12;;;;;;;13.15;6.57;;;26.50;99.90;;;;;;4113655;28;20527;-67
2023/08/28 04:56:13;;;;;;;11.85;6.82;;;26.60;99.90;;;;;;4113614;28;20098;-60
2023/08/28 04:58:14;;;;;;;13.55;6.93;;;26.80;99.90;;;;;;4112600;28;20054;-64
2023/08/28 05:00:16;;;;;;;10.65;6.20;;;27.00;99.90;;;;;;4113398;28;20122;-66
2023/08/28 05:02:17;;;;;;;11.48;6.30;;;27.50;99.90;;;;;;4113558;28;20834;-67
2023/08/28 05:04:18;;;;;;;14.80;6.25;;;27.80;99.90;;;;;;4112598;28;20090;-61
2023/08/28 05:06:19;;;;;;;13.07;7.00;;;28.20;99.90;;;;;;4113026;28;20121;-60
2023/08/28 05:08:20;;;;;;;13.82;5.65;;;28.10;99.90;;;;;;4112903;28;20027;-66
2023/08/28 05:10:22;;;;;;;13.43;6.53;;;28.30;99.90;;;;;;4114101;28;20031;-64
2023/08/28 05:12:23;;;;;;;12.88;5.97;;;28.60;99.90;;;;;;4111970;28;20042;-62
2023/08/28 05:14:24;;;;;;;12.40;6.78;;;28.90;99.90;;;;;;4113031;28;20039;-60
2023/08/28 05:16:25;;;;;;;11.85;6.07;;;29.40;99.90;;;;;;4112504;28;20873;-60
2023/08/28 05:18:26;;;;;;;15.60;7.25;;;29.80;99.90;;;;;;4114053;28;20431;-60
2023/08/28 05:20:28;;;;;;;14.02;7.43;;;29.90;99.90;;;;;;4112434;28;20121;-68
2023/08/28 05:22:29;;;;;;;12.10;6.00;;;29.60;99.90;;;;;;4113415;28;20122;-60
2023/08/28 05:24:30;;;;;;;14.82;6.40;;;29.80;99.90;;;;;;4112841;28;20450;-68
2023/08/28 05:26:32;;;;;;;10.10;6.40;;;30.00;99.90;;;;;;4113705;28;20496;-65
2023/08/28 05:28:35;;;;;;;14.65;6.85;;;30.20;99.90;;;;;;4111939;28;20030;-65
2023/08/28 05:30:36;;;;;;;11.25;5.88;;;30.60;99.90;;;;;;4111336;28;20047;-66
2023/08/28 05:32:37;;;;;;;16.13;7.20;;;30.80;99.90;;;;;;4112448;28;20030;-67
2023/08/28 05:34:39;;;;;;;13.65;6.68;;;31.10;99.90;;;;;;4112061;28;20075;-64
2023/08/28 05:36:40;;;;;;;11.90;6.32;;;31.50;99.70;;;;;;4113199;28;20105;-61
2023/08/28 05:38:41;;;;;;;9.90;5.72;;;31.90;99.10;;;;;;4112032;28;20042;-63
2023/08/28 05:40:43;;;;;;;13.38;7.35;;;32.20;98.50;;;;;;4113610;28;20022;-62
2023/08/28 05:42:45;;;;;;;14.18;7.72;;;32.00;98.20;;;;;;4111955;28;20038;-67
2023/08/28 05:44:46;;;;;;;10.35;7.20;;;31.70;98.00;;;;;;4113395;28;20096;-65
2023/08/28 05:46:47;;;;;;;18.65;7.13;;;31.20;98.20;;;;;;4112656;28;20062;-66
2023/08/28 05:48:48;;;;;;;10.27;7.00;;;30.50;98.60;;;;;;4113629;28;20121;-63
2023/08/28 05:50:49;;;;;;;16.70;7.50;;;30.20;98.90;;;;;;4112478;28;20023;-62
2023/08/28 05:52:51;;;;;;;25.60;8.93;;;29.90;99.10;;;;;;4113745;28;20472;-67
2023/08/28 05:54:52;;;;;;;20.50;9.27;;;29.80;99.20;;;;;;4112179;28;20081;-64
2023/08/28 05:56:53;;;;;;;15.98;8.75;;;29.60;99.30;;;;;;4113536;28;20039;-66
2023/08/28 05:58:54;;;;;;;22.77;8.85;;;29.50;99.30;;;;;;4111423;28;20451;-65
2023/08/28 06:00:55;;;;;;;22.60;10.02;;;29.20;99.70;;;;;;4111930;28;20523;-63
2023/08/28 06:02:56;;;;;;;24.73;9.90;;;29.30;99.60;;;;;;4112536;28;20023;-66
2023/08/28 06:04:57;;;;;;;21.50;9.32;;;29.10;99.70;;;;;;4112547;28;20431;-66
2023/08/28 06:06:58;;;;;;;31.98;9.45;;;29.00;99.80;;;;;;4112528;28;20411;-66
2023/08/28 06:09:03;;;;;;;24.67;9.48;;;28.90;99.90;;;;;;4111711;28;20093;-65
2023/08/28 06:11:05;;;;;;;22.27;9.57;;;28.90;99.90;;;;;;4113277;28;20030;-67
2023/08/28 06:13:06;;;;;;;18.88;9.68;;;29.20;99.80;;;;;;4112023;28;20491;-66
2023/08/28 06:15:09;;;;;;;16.55;8.02;;;29.00;99.60;;;;;;4113187;28;20117;-68
2023/08/28 06:17:10;;;;;;;21.17;8.80;;;28.70;99.90;;;;;;4111910;28;20031;-64
2023/08/28 06:19:11;;;;;;;21.08;8.32;;;28.30;99.90;;;;;;4113245;28;20443;-66
2023/08/28 06:21:12;;;;;;;15.63;8.32;;;28.00;99.90;;;;;;4111843;28;20035;-63
2023/08/28 06:23:14;;;;;;;17.08;8.43;;;27.90;99.90;;;;;;4112967;28;20035;-64
2023/08/28 06:25:15;;;;;;;11.48;7.47;;;27.80;99.90;;;;;;4111972;28;20031;-64
2023/08/28 06:27:16;;;;;;;14.70;7.53;;;27.50;99.90;;;;;;4112213;28;20043;-64
2023/08/28 06:29:17;;;;;;;16.48;7.85;;;27.40;99.90;;;;;;4111446;28;20417;-64
2023/08/28 06:31:18;;;;;;;17.80;8.05;;;27.00;99.90;;;;;;4112056;28;20085;-67
2023/08/28 06:33:20;;;;;;;16.05;8.23;;;26.70;99.90;;;;;;4111337;28;20101;-63
2023/08/28 06:35:21;;;;;;;16.45;8.70;;;26.50;99.90;;;;;;4111124;28;20062;-66
2023/08/28 06:37:24;;;;;;;13.38;7.55;;;26.70;99.90;;;;;;4111628;28;20484;-64
2023/08/28 06:39:26;;;;;;;18.00;9.18;;;26.80;99.90;;;;;;4111448;28;20070;-65
2023/08/28 06:41:27;;;;;;;19.20;9.15;;;26.80;99.90;;;;;;4110997;28;20385;-68
2023/08/28 06:43:29;;;;;;;18.42;9.25;;;26.80;99.90;;;;;;4110600;28;20046;-62
2023/08/28 06:45:31;;;;;;;22.65;8.77;;;26.70;99.90;;;;;;4111796;28;20471;-61
2023/08/28 06:47:32;;;;;;;16.65;8.52;;;26.80;99.90;;;;;;4111420;28;20062;-60
2023/08/28 06:49:34;;;;;;;19.25;9.50;;;27.00;99.90;;;;;;4111910;28;20046;-64
2023/08/28 06:51:35;;;;;;;13.50;8.45;;;27.00;99.90;;;;;;4111056;28;20046;-61
2023/08/28 06:53:36;;;;;;;15.13;8.13;;;27.20;99.90;;;;;;4112407;28;20460;-67
2023/08/28 06:55:37;;;;;;;17.52;8.57;;;27.30;99.90;;;;;;4111896;28;20155;-64
2023/08/28 06:57:39;;;;;;;16.05;8.10;;;27.40;99.90;;;;;;4112701;28;20027;-69
2023/08/28 06:59:40;;;;;;;15.30;9.50;;;27.40;99.90;;;;;;4110866;28;20042;-66
2023/08/28 07:01:41;;;;;;;17.27;8.93;;;27.40;99.90;;;;;;4112209;28;20156;-65
2023/08/28 07:03:42;;;;;;;13.77;8.65;;;27.40;99.90;;;;;;4111685;28;20567;-66
2023/08/28 07:05:44;;;;;;;17.25;8.20;;;27.40;99.90;;;;;;4111469;28;20038;-65
2023/08/28 07:07:45;;;;;;;13.82;8.82;;;27.50;99.90;;;;;;4111091;28;20109;-69
2023/08/28 07:09:46;;;;;;;20.85;9.40;;;28.20;99.90;;;;;;4111347;28;20040;-67
2023/08/28 07:11:47;;;;;;;22.23;10.15;;;28.70;99.90;;;;;;4111613;28;20058;-65
2023/08/28 07:13:49;;;;;;;15.70;8.98;;;28.50;99.90;;;;;;4111102;28;20026;-66
2023/08/28 07:15:50;;;;;;;18.85;9.48;;;28.30;99.90;;;;;;4111961;28;20507;-63
2023/08/28 07:17:52;;;;;;;12.77;8.50;;;28.30;99.90;;;;;;4110876;28;20038;-65
2023/08/28 07:19:53;;;;;;;13.77;7.97;;;28.40;99.90;;;;;;4112192;28;20053;-67
2023/08/28 07:21:55;;;;;;;12.40;7.72;;;28.50;99.90;;;;;;4110893;28;20043;-63
2023/08/28 07:23:57;;;;;;;12.50;7.55;;;28.20;99.90;;;;;;4112066;28;20427;-62
2023/08/28 07:25:59;;;;;;;13.02;8.50;;;28.30;99.90;;;;;;4111679;28;20120;-68
2023/08/28 07:28:00;;;;;;;13.95;7.60;;;28.20;99.90;;;;;;4112187;28;20066;-62
2023/08/28 07:30:05;;;;;;;11.55;7.65;;;28.30;99.90;;;;;;4110999;28;20035;-63
2023/08/28 07:32:06;;;;;;;10.13;7.30;;;28.50;99.90;;;;;;4111949;28;20046;-68
2023/08/28 07:34:07;;;;;;;10.88;7.28;;;28.70;99.90;;;;;;4110849;28;20178;-63
2023/08/28 07:36:09;;;;;;;14.77;7.70;;;28.70;99.90;;;;;;4111736;28;20079;-67
2023/08/28 07:38:10;;;;;;;8.25;7.05;;;28.80;99.90;;;;;;4111250;28;20073;-66
2023/08/28 07:40:11;;;;;;;12.07;7.38;;;28.90;99.90;;;;;;4111030;28;20039;-65
2023/08/28 07:42:12;;;;;;;13.98;7.82;;;28.90;99.90;;;;;;4111937;28;20039;-65
2023/08/28 07:44:13;;;;;;;11.57;6.70;;;28.90;99.90;;;;;;4110687;28;20046;-65
2023/08/28 07:46:14;;;;;;;11.90;6.80;;;28.80;99.90;;;;;;4111331;28;20404;-67
2023/08/28 07:48:16;;;;;;;8.70;6.68;;;28.70;99.90;;;;;;4110481;28;20085;-67
2023/08/28 07:50:17;;;;;;;10.80;6.75;;;28.80;99.90;;;;;;4112151;28;20027;-66
2023/08/28 07:52:18;;;;;;;11.38;6.40;;;28.80;99.90;;;;;;4110518;28;20042;-62
2023/08/28 07:54:19;;;;;;;9.63;5.80;;;28.90;99.90;;;;;;4113008;28;20431;-60
2023/08/28 07:56:20;;;;;;;12.35;5.40;;;29.00;99.90;;;;;;4114088;28;20058;-61
2023/08/28 07:58:22;;;;;;;10.02;5.78;;;29.00;99.90;;;;;;4114950;28;20105;-66
2023/08/28 08:00:23;;;;;;;13.73;5.80;;;29.00;99.90;;;;;;4113303;28;20043;-62
2023/08/28 08:02:24;;;;;;;11.27;4.78;;;29.10;99.90;;;;;;4115367;28;20027;-62
2023/08/28 08:04:26;;;;;;;8.95;5.53;;;29.20;99.90;;;;;;4114267;28;20023;-64
2023/08/28 08:06:27;;;;;;;8.75;5.65;;;29.30;99.90;;;;;;4114666;28;20023;-65
2023/08/28 08:08:28;;;;;;;6.47;5.68;;;29.20;99.90;;;;;;4113985;28;20031;-67
2023/08/28 08:10:29;;;;;;;6.72;5.35;;;29.20;99.90;;;;;;4113592;28;20047;-60
2023/08/28 08:12:30;;;;;;;9.85;5.57;;;29.20;99.90;;;;;;4114603;28;20034;-67
2023/08/28 08:14:31;;;;;;;7.97;5.60;;;29.40;99.90;;;;;;4113423;28;20035;-63
2023/08/28 08:16:32;;;;;;;11.77;5.45;;;29.50;99.90;;;;;;4114379;28;20047;-64
2023/08/28 08:18:34;;;;;;;11.05;5.97;;;29.60;99.90;;;;;;4113932;28;20092;-67
2023/08/28 08:20:35;;;;;;;10.07;5.40;;;29.70;99.90;;;;;;4114099;28;20105;-64
2023/08/28 08:22:42;;;;;;;9.57;5.40;;;29.80;99.90;;;;;;4113418;28;20117;-66
2023/08/28 08:24:43;;;;;;;8.23;5.30;;;29.90;99.90;;;;;;4112622;28;20069;-61
2023/08/28 08:26:44;;;;;;;8.82;6.03;;;29.90;99.90;;;;;;4113732;28;20050;-66
2023/08/28 08:28:45;;;;;;;9.65;6.03;;;29.90;99.90;;;;;;4114696;28;20325;-66
2023/08/28 08:30:47;;;;;;;7.63;5.22;;;29.90;99.90;;;;;;4113425;28;20185;-67
2023/08/28 08:32:48;;;;;;;13.18;5.70;;;30.10;99.90;;;;;;4114307;28;20046;-66
2023/08/28 08:34:49;;;;;;;11.07;5.68;;;30.30;99.70;;;;;;4113733;28;20031;-67
2023/08/28 08:36:50;;;;;;;9.35;5.38;;;30.40;99.60;;;;;;4113684;28;20051;-67
2023/08/28 08:38:51;;;;;;;11.73;6.03;;;30.50;99.50;;;;;;4113546;28;20026;-65
2023/08/28 08:40:58;;;;;;;8.20;5.43;;;30.50;99.20;;;;;;4113594;28;20039;-67
2023/08/28 08:42:59;;;;;;;6.25;5.47;;;30.50;99.30;;;;;;4113313;28;20105;-62
2023/08/28 08:45:00;;;;;;;6.80;5.50;;;30.50;99.10;;;;;;4113707;28;20121;-67
2023/08/28 08:47:04;;;;;;;6.70;5.35;;;30.50;99.10;;;;;;4113781;28;20105;-62
2023/08/28 08:49:07;;;;;;;12.30;6.10;;;30.50;99.20;;;;;;4112519;28;20109;-65
2023/08/28 08:51:09;;;;;;;8.13;5.38;;;30.50;99.00;;;;;;4114319;28;20567;-66
2023/08/28 08:53:42;;;;;;;7.63;5.85;;;30.60;98.90;;;;;;4112964;28;20039;-66
2023/08/28 08:55:47;;;;;;;6.97;5.50;;;30.60;98.70;;;;;;4098296;28;20043;-64
2023/08/28 08:57:53;;;;;;;9.05;5.10;;;30.70;98.60;;;;;;4112796;28;20039;-61
2023/08/28 08:59:55;;;;;;;6.80;5.65;;;30.90;98.50;;;;;;4114093;28;20082;-64
2023/08/28 09:01:59;;;;;;;9.85;5.55;;;31.00;98.30;;;;;;4113079;28;20030;-62
2023/08/28 09:04:02;;;;;;;10.98;5.60;;;31.10;98.20;;;;;;4114176;28;20070;-62
2023/08/28 09:06:06;;;;;;;11.38;5.38;;;31.30;98.00;;;;;;4113013;28;20027;-64
2023/08/28 09:08:07;;;;;;;10.90;5.47;;;31.50;97.70;;;;;;4113520;28;20366;-64
2023/08/28 09:10:10;;;;;;;10.00;5.43;;;31.50;97.60;;;;;;4111896;28;20047;-64
2023/08/28 09:12:13;;;;;;;8.77;5.22;;;31.50;97.50;;;;;;4112105;28;20109;-62
2023/08/28 09:14:15;;;;;;;7.93;5.38;;;31.40;97.40;;;;;;4112575;28;20444;-61
2023/08/28 09:16:19;;;;;;;10.98;5.60;;;31.60;97.40;;;;;;4113875;28;20801;-61
2023/08/28 09:18:21;;;;;;;8.07;5.80;;;31.60;96.90;;;;;;4112293;28;20073;-62
2023/08/28 09:20:22;;;;;;;10.18;5.85;;;31.70;97.10;;;;;;4113944;28;20031;-62
2023/08/28 09:22:25;;;;;;;9.38;5.10;;;31.70;97.00;;;;;;4111935;28;20089;-66
2023/08/28 09:24:26;;;;;;;10.15;4.97;;;31.90;96.90;;;;;;4113230;28;20439;-64
2023/08/28 09:26:28;;;;;;;6.63;5.35;;;31.90;96.60;;;;;;4112201;28;20027;-60
2023/08/28 09:28:29;;;;;;;9.23;4.93;;;31.90;96.70;;;;;;4113570;28;20701;-62
2023/08/28 09:30:32;;;;;;;6.75;4.60;;;32.00;96.30;;;;;;4113480;28;20494;-65
2023/08/28 09:32:33;;;;;;;7.82;5.10;;;32.20;96.10;;;;;;4112950;28;20026;-68
2023/08/28 09:34:39;;;;;;;9.40;4.60;;;32.30;95.90;;;;;;4113127;28;20483;-61
2023/08/28 09:36:40;;;;;;;10.65;4.95;;;32.40;95.50;;;;;;4112185;28;20051;-68
2023/08/28 09:38:42;;;;;;;10.90;5.03;;;32.50;95.50;;;;;;4113888;28;20422;-60
2023/08/28 09:40:44;;;;;;;18.25;4.78;;;32.60;95.30;;;;;;4111933;28;20368;-67
2023/08/28 09:42:45;;;;;;;6.68;4.47;;;32.80;94.50;;;;;;4113599;28;20031;-65
2023/08/28 09:44:49;;;;;;;6.68;4.55;;;32.90;94.00;;;;;;4112419;28;20034;-66
2023/08/28 09:46:51;;;;;;;7.28;4.22;;;33.00;93.60;;;;;;4113812;28;20039;-65
2023/08/28 09:48:53;;;;;;;7.45;5.10;;;33.10;93.50;;;;;;4112461;28;20105;-63
2023/08/28 09:50:54;;;;;;;5.07;4.40;;;33.20;93.30;;;;;;4112892;28;20042;-66
2023/08/28 09:53:05;;;;;;;10.45;4.88;;;33.40;93.30;;;;;;4112039;28;20357;-66
2023/08/28 09:55:07;;;;;;;17.27;4.88;;;33.60;92.80;;;;;;4113329;28;20507;-68
2023/08/28 09:57:17;;;;;;;7.22;4.05;;;33.70;92.20;;;;;;4112285;28;20451;-65
2023/08/28 09:59:19;;;;;;;8.85;4.53;;;33.60;91.60;;;;;;4113184;28;20038;-69
2023/08/28 10:01:20;;;;;;;4.93;3.80;;;33.70;91.60;;;;;;4111838;28;20046;-65
2023/08/28 10:03:23;;;;;;;7.43;4.65;;;33.80;91.30;;;;;;4113133;28;20034;-67
2023/08/28 10:05:24;;;;;;;6.85;4.47;;;33.70;90.90;;;;;;4111842;28;20431;-66
2023/08/28 10:07:26;;;;;;;8.50;4.10;;;33.80;90.90;;;;;;4112603;28;20086;-65
2023/08/28 10:09:32;;;;;;;10.45;4.78;;;33.70;90.90;;;;;;4112814;28;20125;-68
2023/08/28 10:11:38;;;;;;;5.75;4.25;;;33.70;90.70;;;;;;4112357;28;20117;-68
2023/08/28 10:13:40;;;;;;;6.35;4.18;;;33.60;90.50;;;;;;4112732;28;20093;-61
2023/08/28 10:15:47;;;;;;;12.57;4.95;;;33.50;90.60;;;;;;4112157;28;20034;-65
2023/08/28 10:17:50;;;;;;;6.75;4.28;;;33.50;90.60;;;;;;4112625;28;20105;-63
2023/08/28 10:19:55;;;;;;;7.97;4.63;;;33.60;90.40;;;;;;4111778;28;20451;-67
2023/08/28 10:21:56;;;;;;;11.68;4.25;;;33.60;90.20;;;;;;4112459;28;20093;-67
2023/08/28 10:23:59;;;;;;;10.27;4.40;;;33.60;90.30;;;;;;4111578;28;20496;-69
2023/08/28 10:26:02;;;;;;;5.00;3.92;;;33.70;90.30;;;;;;4113155;28;20027;-60
2023/08/28 10:28:03;;;;;;;6.05;4.10;;;33.70;90.00;;;;;;4111946;28;20082;-66
2023/08/28 10:30:06;;;;;;;6.50;4.15;;;33.70;90.10;;;;;;4112873;28;20031;-59